sensor_id;sensor_type;location;lat;lon;timestamp;pressure;altitude;pressure_sealevel;temperature;humidity
77871;BME280;67067;46.850;7.578;2023-07-13T00:00:14;95412.09;;;16.59;60.49
77871;BME280;67067;46.850;7.578;2023-07-13T00:01:21;95416.84;;;16.43;60.83
77871;BME280;67067;46.850;7.578;2023-07-13T00:02:24;95425.41;;;16.40;60.80
77871;BME280;67067;46.850;7.578;2023-07-13T00:03:26;95430.97;;;16.44;60.73
77871;BME280;67067;46.850;7.578;2023-07-13T00:04:32;95429.63;;;16.46;60.98
77871;BME280;67067;46.850;7.578;2023-07-13T00:05:34;95433.59;;;16.49;60.47
77871;BME280;67067;46.850;7.578;2023-07-13T00:06:36;95432.16;;;16.32;60.67
77871;BME280;67067;46.850;7.578;2023-07-13T00:07:38;95436.25;;;16.49;60.55
77871;BME280;67067;46.850;7.578;2023-07-13T00:08:39;95437.19;;;16.39;60.64
77871;BME280;67067;46.850;7.578;2023-07-13T00:09:41;95437.84;;;16.50;60.30
77871;BME280;67067;46.850;7.578;2023-07-13T00:10:43;95445.22;;;16.58;60.28
77871;BME280;67067;46.850;7.578;2023-07-13T00:11:52;95442.56;;;16.58;59.98
77871;BME280;67067;46.850;7.578;2023-07-13T00:12:54;95440.63;;;16.64;59.94
77871;BME280;67067;46.850;7.578;2023-07-13T00:13:56;95432.09;;;16.62;59.78
77871;BME280;67067;46.850;7.578;2023-07-13T00:14:58;95441.03;;;16.52;60.46
77871;BME280;67067;46.850;7.578;2023-07-13T00:16:01;95433.97;;;16.61;60.13
77871;BME280;67067;46.850;7.578;2023-07-13T00:17:02;95433.00;;;16.52;60.39
77871;BME280;67067;46.850;7.578;2023-07-13T00:18:05;95424.50;;;16.50;60.12
77871;BME280;67067;46.850;7.578;2023-07-13T00:19:10;95428.56;;;16.67;59.82
77871;BME280;67067;46.850;7.578;2023-07-13T00:20:13;95423.97;;;16.72;59.79
77871;BME280;67067;46.850;7.578;2023-07-13T00:21:14;95426.91;;;16.76;59.30
77871;BME280;67067;46.850;7.578;2023-07-13T00:22:16;95430.16;;;16.68;59.50
77871;BME280;67067;46.850;7.578;2023-07-13T00:23:19;95430.34;;;16.76;59.51
77871;BME280;67067;46.850;7.578;2023-07-13T00:24:23;95425.00;;;16.76;59.36
77871;BME280;67067;46.850;7.578;2023-07-13T00:25:26;95425.53;;;16.79;59.12
77871;BME280;67067;46.850;7.578;2023-07-13T00:26:30;95423.94;;;16.77;59.06
77871;BME280;67067;46.850;7.578;2023-07-13T00:27:34;95427.69;;;16.76;58.58
77871;BME280;67067;46.850;7.578;2023-07-13T00:28:39;95427.41;;;16.78;58.41
77871;BME280;67067;46.850;7.578;2023-07-13T00:29:41;95425.00;;;16.76;58.83
77871;BME280;67067;46.850;7.578;2023-07-13T00:30:42;95429.06;;;16.69;58.71
77871;BME280;67067;46.850;7.578;2023-07-13T00:31:46;95424.22;;;16.76;58.48
77871;BME280;67067;46.850;7.578;2023-07-13T00:32:51;95427.91;;;16.80;58.55
77871;BME280;67067;46.850;7.578;2023-07-13T00:34:05;95429.78;;;16.80;58.41
77871;BME280;67067;46.850;7.578;2023-07-13T00:35:09;95428.50;;;16.77;58.49
77871;BME280;67067;46.850;7.578;2023-07-13T00:36:16;95427.44;;;16.73;58.31
77871;BME280;67067;46.850;7.578;2023-07-13T00:37:18;95432.78;;;16.73;58.35
77871;BME280;67067;46.850;7.578;2023-07-13T00:38:25;95436.53;;;16.72;58.22
77871;BME280;67067;46.850;7.578;2023-07-13T00:39:26;95437.78;;;16.55;58.53
77871;BME280;67067;46.850;7.578;2023-07-13T00:40:28;95438.22;;;16.62;58.40
77871;BME280;67067;46.850;7.578;2023-07-13T00:41:30;95437.56;;;16.52;58.78
77871;BME280;67067;46.850;7.578;2023-07-13T00:42:34;95442.56;;;16.58;58.59
77871;BME280;67067;46.850;7.578;2023-07-13T00:43:36;95444.66;;;16.61;58.51
77871;BME280;67067;46.850;7.578;2023-07-13T00:44:40;95443.56;;;16.62;58.78
77871;BME280;67067;46.850;7.578;2023-07-13T00:46:43;95445.34;;;16.48;58.69
77871;BME280;67067;46.850;7.578;2023-07-13T00:47:45;95438.16;;;16.48;58.79
77871;BME280;67067;46.850;7.578;2023-07-13T00:48:48;95446.53;;;16.37;59.18
77871;BME280;67067;46.850;7.578;2023-07-13T00:49:52;95432.56;;;16.45;59.18
77871;BME280;67067;46.850;7.578;2023-07-13T00:50:55;95436.94;;;16.36;59.37
77871;BME280;67067;46.850;7.578;2023-07-13T00:51:59;95437.34;;;16.48;59.37
77871;BME280;67067;46.850;7.578;2023-07-13T00:53:01;95431.66;;;16.55;59.79
77871;BME280;67067;46.850;7.578;2023-07-13T00:54:10;95437.28;;;16.53;60.02
77871;BME280;67067;46.850;7.578;2023-07-13T00:55:14;95431.34;;;16.56;59.67
77871;BME280;67067;46.850;7.578;2023-07-13T00:56:17;95432.44;;;16.55;59.37
77871;BME280;67067;46.850;7.578;2023-07-13T00:57:20;95435.63;;;16.57;59.61
77871;BME280;67067;46.850;7.578;2023-07-13T00:58:25;95432.09;;;16.62;59.38
77871;BME280;67067;46.850;7.578;2023-07-13T00:59:27;95431.09;;;16.58;59.68
77871;BME280;67067;46.850;7.578;2023-07-13T01:00:30;95429.88;;;16.45;59.81
77871;BME280;67067;46.850;7.578;2023-07-13T01:01:34;95425.50;;;16.54;59.40
77871;BME280;67067;46.850;7.578;2023-07-13T01:02:42;95428.69;;;16.56;59.44
77871;BME280;67067;46.850;7.578;2023-07-13T01:03:45;95427.09;;;16.55;58.96
77871;BME280;67067;46.850;7.578;2023-07-13T01:04:48;95433.53;;;16.54;59.19
77871;BME280;67067;46.850;7.578;2023-07-13T01:05:50;95432.94;;;16.57;59.39
77871;BME280;67067;46.850;7.578;2023-07-13T01:06:56;95428.19;;;16.54;58.70
77871;BME280;67067;46.850;7.578;2023-07-13T01:07:59;95431.16;;;16.53;58.87
77871;BME280;67067;46.850;7.578;2023-07-13T01:09:01;95437.34;;;16.48;59.45
77871;BME280;67067;46.850;7.578;2023-07-13T01:10:04;95439.44;;;16.51;59.44
77871;BME280;67067;46.850;7.578;2023-07-13T01:11:06;95441.03;;;16.52;59.43
77871;BME280;67067;46.850;7.578;2023-07-13T01:12:10;95439.16;;;16.53;59.50
77871;BME280;67067;46.850;7.578;2023-07-13T01:13:11;95444.50;;;16.53;59.67
77871;BME280;67067;46.850;7.578;2023-07-13T01:14:14;95442.91;;;16.52;60.03
77871;BME280;67067;46.850;7.578;2023-07-13T01:15:46;95442.84;;;16.32;59.89
77871;BME280;67067;46.850;7.578;2023-07-13T01:16:49;95445.41;;;16.43;60.10
77871;BME280;67067;46.850;7.578;2023-07-13T01:17:51;95451.78;;;16.47;60.00
77871;BME280;67067;46.850;7.578;2023-07-13T01:18:54;95449.84;;;16.53;60.03
77871;BME280;67067;46.850;7.578;2023-07-13T01:19:59;95453.03;;;16.55;59.49
77871;BME280;67067;46.850;7.578;2023-07-13T01:21:03;95452.22;;;16.54;59.25
77871;BME280;67067;46.850;7.578;2023-07-13T01:22:08;95458.13;;;16.51;59.36
77871;BME280;67067;46.850;7.578;2023-07-13T01:23:15;95455.97;;;16.53;59.55
77871;BME280;67067;46.850;7.578;2023-07-13T01:24:17;95456.66;;;16.40;59.76
77871;BME280;67067;46.850;7.578;2023-07-13T01:25:22;95459.00;;;16.46;59.70
77871;BME280;67067;46.850;7.578;2023-07-13T01:26:24;95450.53;;;16.39;60.26
77871;BME280;67067;46.850;7.578;2023-07-13T01:27:26;95457.41;;;16.45;59.86
77871;BME280;67067;46.850;7.578;2023-07-13T01:28:28;95456.53;;;16.50;60.15
77871;BME280;67067;46.850;7.578;2023-07-13T01:29:32;95466.00;;;16.42;60.44
77871;BME280;67067;46.850;7.578;2023-07-13T01:30:35;95457.16;;;16.42;59.97
77871;BME280;67067;46.850;7.578;2023-07-13T01:31:37;95455.31;;;16.42;59.99
77871;BME280;67067;46.850;7.578;2023-07-13T01:32:41;95453.94;;;16.45;60.45
77871;BME280;67067;46.850;7.578;2023-07-13T01:33:44;95451.56;;;16.43;60.22
77871;BME280;67067;46.850;7.578;2023-07-13T01:34:49;95458.50;;;16.44;60.44
77871;BME280;67067;46.850;7.578;2023-07-13T01:35:51;95446.72;;;16.45;60.58
77871;BME280;67067;46.850;7.578;2023-07-13T01:36:55;95444.25;;;16.49;60.08
77871;BME280;67067;46.850;7.578;2023-07-13T01:37:57;95441.53;;;16.54;59.80
77871;BME280;67067;46.850;7.578;2023-07-13T01:38:58;95444.72;;;16.32;60.51
77871;BME280;67067;46.850;7.578;2023-07-13T01:40:00;95440.00;;;16.48;59.86
77871;BME280;67067;46.850;7.578;2023-07-13T01:41:04;95441.03;;;16.52;60.05
77871;BME280;67067;46.850;7.578;2023-07-13T01:42:07;95440.97;;;16.57;59.58
77871;BME280;67067;46.850;7.578;2023-07-13T01:43:09;95436.19;;;16.54;60.00
77871;BME280;67067;46.850;7.578;2023-07-13T01:44:10;95441.53;;;16.54;59.74
77871;BME280;67067;46.850;7.578;2023-07-13T01:45:12;95444.16;;;16.59;59.93
77871;BME280;67067;46.850;7.578;2023-07-13T01:46:14;95438.16;;;16.48;60.02
77871;BME280;67067;46.850;7.578;2023-07-13T01:47:18;95430.22;;;16.62;59.64
77871;BME280;67067;46.850;7.578;2023-07-13T01:48:20;95437.34;;;16.48;59.56
77871;BME280;67067;46.850;7.578;2023-07-13T01:49:22;95436.06;;;16.65;58.99
77871;BME280;67067;46.850;7.578;2023-07-13T01:50:25;95434.66;;;16.72;59.65
77871;BME280;67067;46.850;7.578;2023-07-13T01:51:27;95436.03;;;16.70;60.21
77871;BME280;67067;46.850;7.578;2023-07-13T01:52:29;95438.13;;;16.73;60.04
77871;BME280;67067;46.850;7.578;2023-07-13T01:53:32;95430.66;;;16.75;60.44
77871;BME280;67067;46.850;7.578;2023-07-13T01:54:35;95434.41;;;16.74;60.36
77871;BME280;67067;46.850;7.578;2023-07-13T01:55:37;95434.47;;;16.63;60.92
77871;BME280;67067;46.850;7.578;2023-07-13T01:56:39;95427.41;;;16.78;60.40
77871;BME280;67067;46.850;7.578;2023-07-13T01:57:42;95424.16;;;16.81;60.27
77871;BME280;67067;46.850;7.578;2023-07-13T01:58:45;95434.28;;;16.84;59.77
77871;BME280;67067;46.850;7.578;2023-07-13T01:59:47;95433.13;;;16.90;59.57
77871;BME280;67067;46.850;7.578;2023-07-13T02:00:49;95432.44;;;16.80;59.67
77871;BME280;67067;46.850;7.578;2023-07-13T02:01:51;95434.72;;;16.91;60.06
77871;BME280;67067;46.850;7.578;2023-07-13T02:02:55;95429.06;;;16.93;59.66
77871;BME280;67067;46.850;7.578;2023-07-13T02:03:58;95437.91;;;16.94;59.43
77871;BME280;67067;46.850;7.578;2023-07-13T02:05:03;95434.34;;;16.98;59.42
77871;BME280;67067;46.850;7.578;2023-07-13T02:06:05;95435.16;;;16.99;59.25
77871;BME280;67067;46.850;7.578;2023-07-13T02:07:08;95433.56;;;16.98;59.34
77871;BME280;67067;46.850;7.578;2023-07-13T02:08:11;95436.81;;;16.95;59.45
77871;BME280;67067;46.850;7.578;2023-07-13T02:09:12;95431.97;;;16.97;59.43
77871;BME280;67067;46.850;7.578;2023-07-13T02:10:15;95433.34;;;16.94;59.41
77871;BME280;67067;46.850;7.578;2023-07-13T02:11:17;95430.97;;;16.92;59.46
77871;BME280;67067;46.850;7.578;2023-07-13T02:12:19;95432.56;;;16.94;59.23
77871;BME280;67067;46.850;7.578;2023-07-13T02:13:23;95435.28;;;16.88;59.24
77871;BME280;67067;46.850;7.578;2023-07-13T02:14:24;95437.97;;;16.88;59.57
77871;BME280;67067;46.850;7.578;2023-07-13T02:15:26;95428.53;;;16.72;59.64
77871;BME280;67067;46.850;7.578;2023-07-13T02:16:28;95432.19;;;16.81;59.83
77871;BME280;67067;46.850;7.578;2023-07-13T02:17:31;95430.53;;;16.85;59.30
77871;BME280;67067;46.850;7.578;2023-07-13T02:18:33;95429.72;;;16.85;59.11
77871;BME280;67067;46.850;7.578;2023-07-13T02:19:35;95436.44;;;16.82;58.99
77871;BME280;67067;46.850;7.578;2023-07-13T02:20:37;95430.78;;;16.84;58.82
77871;BME280;67067;46.850;7.578;2023-07-13T02:21:41;95433.78;;;16.82;59.03
77871;BME280;67067;46.850;7.578;2023-07-13T02:22:43;95433.41;;;16.65;59.27
77871;BME280;67067;46.850;7.578;2023-07-13T02:23:47;95435.69;;;16.76;58.91
77871;BME280;67067;46.850;7.578;2023-07-13T02:24:50;95435.44;;;16.78;58.80
77871;BME280;67067;46.850;7.578;2023-07-13T02:25:56;95431.16;;;16.77;58.82
77871;BME280;67067;46.850;7.578;2023-07-13T02:26:57;95432.25;;;16.76;58.86
77871;BME280;67067;46.850;7.578;2023-07-13T02:27:59;95431.81;;;16.63;59.42
77871;BME280;67067;46.850;7.578;2023-07-13T02:29:02;95428.22;;;16.73;59.24
77871;BME280;67067;46.850;7.578;2023-07-13T02:30:04;95430.91;;;16.73;59.17
77871;BME280;67067;46.850;7.578;2023-07-13T02:31:08;95429.06;;;16.74;58.75
77871;BME280;67067;46.850;7.578;2023-07-13T02:32:10;95424.53;;;16.69;58.74
77871;BME280;67067;46.850;7.578;2023-07-13T02:33:15;95426.75;;;16.62;59.04
77871;BME280;67067;46.850;7.578;2023-07-13T02:34:17;95424.94;;;16.57;58.84
77871;BME280;67067;46.850;7.578;2023-07-13T02:35:20;95429.50;;;16.57;59.14
77871;BME280;67067;46.850;7.578;2023-07-13T02:36:22;95433.06;;;16.47;59.39
77871;BME280;67067;46.850;7.578;2023-07-13T02:37:26;95436.13;;;16.59;59.35
77871;BME280;67067;46.850;7.578;2023-07-13T02:38:29;95426.53;;;16.58;59.63
77871;BME280;67067;46.850;7.578;2023-07-13T02:39:31;95426.66;;;16.48;59.54
77871;BME280;67067;46.850;7.578;2023-07-13T02:40:36;95426.03;;;16.56;59.63
77871;BME280;67067;46.850;7.578;2023-07-13T02:41:39;95424.94;;;16.57;59.47
77871;BME280;67067;46.850;7.578;2023-07-13T02:42:41;95423.06;;;16.58;59.82
77871;BME280;67067;46.850;7.578;2023-07-13T02:43:48;95424.66;;;16.59;59.74
77871;BME280;67067;46.850;7.578;2023-07-13T02:44:50;95427.03;;;16.60;59.50
77871;BME280;67067;46.850;7.578;2023-07-13T02:45:52;95429.72;;;16.60;60.00
77871;BME280;67067;46.850;7.578;2023-07-13T02:46:54;95428.75;;;16.51;59.83
77871;BME280;67067;46.850;7.578;2023-07-13T02:47:58;95428.41;;;16.58;58.83
77871;BME280;67067;46.850;7.578;2023-07-13T02:49:01;95433.75;;;16.58;58.16
77871;BME280;67067;46.850;7.578;2023-07-13T02:50:02;95432.94;;;16.57;57.63
77871;BME280;67067;46.850;7.578;2023-07-13T02:51:06;95427.91;;;16.56;58.14
77871;BME280;67067;46.850;7.578;2023-07-13T02:52:09;95425.00;;;16.52;58.29
77871;BME280;67067;46.850;7.578;2023-07-13T02:53:10;95431.72;;;16.50;58.96
77871;BME280;67067;46.850;7.578;2023-07-13T02:54:12;95425.50;;;16.54;59.12
77871;BME280;67067;46.850;7.578;2023-07-13T02:55:15;95424.72;;;16.54;59.75
77871;BME280;67067;46.850;7.578;2023-07-13T02:56:21;95421.75;;;16.55;60.01
77871;BME280;67067;46.850;7.578;2023-07-13T02:57:23;95423.34;;;16.56;59.74
77871;BME280;67067;46.850;7.578;2023-07-13T02:58:25;95418.56;;;16.53;59.39
77871;BME280;67067;46.850;7.578;2023-07-13T02:59:26;95424.03;;;16.43;59.15
77871;BME280;67067;46.850;7.578;2023-07-13T03:00:28;95415.91;;;16.53;58.71
77871;BME280;67067;46.850;7.578;2023-07-13T03:01:30;95420.69;;;16.56;57.36
77871;BME280;67067;46.850;7.578;2023-07-13T03:02:36;95419.66;;;16.52;57.33
77871;BME280;67067;46.850;7.578;2023-07-13T03:03:38;95418.13;;;16.46;57.25
77871;BME280;67067;46.850;7.578;2023-07-13T03:04:40;95415.00;;;16.39;56.83
77871;BME280;67067;46.850;7.578;2023-07-13T03:05:43;95416.66;;;16.34;57.18
77871;BME280;67067;46.850;7.578;2023-07-13T03:06:47;95422.06;;;16.29;57.05
77871;BME280;67067;46.850;7.578;2023-07-13T03:07:49;95414.81;;;16.30;56.74
77871;BME280;67067;46.850;7.578;2023-07-13T03:08:51;95421.03;;;16.25;57.28
77871;BME280;67067;46.850;7.578;2023-07-13T03:09:57;95421.28;;;16.24;57.18
77871;BME280;67067;46.850;7.578;2023-07-13T03:11:10;95431.19;;;16.23;56.90
77871;BME280;67067;46.850;7.578;2023-07-13T03:12:14;95430.13;;;16.24;57.51
77871;BME280;67067;46.850;7.578;2023-07-13T03:13:16;95437.22;;;16.10;57.72
77871;BME280;67067;46.850;7.578;2023-07-13T03:14:18;95436.09;;;16.16;58.02
77871;BME280;67067;46.850;7.578;2023-07-13T03:15:23;95434.50;;;16.15;58.02
77871;BME280;67067;46.850;7.578;2023-07-13T03:16:27;95438.25;;;16.14;58.00
77871;BME280;67067;46.850;7.578;2023-07-13T03:17:29;95434.75;;;16.13;58.08
77871;BME280;67067;46.850;7.578;2023-07-13T03:18:31;95444.13;;;16.11;58.47
77871;BME280;67067;46.850;7.578;2023-07-13T03:19:37;95443.84;;;16.12;58.57
77871;BME280;67067;46.850;7.578;2023-07-13T03:20:39;95440.41;;;16.12;58.48
77871;BME280;67067;46.850;7.578;2023-07-13T03:21:41;95435.28;;;16.15;58.52
77871;BME280;67067;46.850;7.578;2023-07-13T03:22:43;95431.25;;;16.18;58.03
77871;BME280;67067;46.850;7.578;2023-07-13T03:23:46;95431.75;;;16.20;58.01
77871;BME280;67067;46.850;7.578;2023-07-13T03:24:48;95439.00;;;16.14;57.98
77871;BME280;67067;46.850;7.578;2023-07-13T03:25:50;95437.25;;;16.04;58.06
77871;BME280;67067;46.850;7.578;2023-07-13T03:26:52;95435.06;;;16.12;58.57
77871;BME280;67067;46.850;7.578;2023-07-13T03:27:55;95436.84;;;16.16;58.48
77871;BME280;67067;46.850;7.578;2023-07-13T03:28:59;95440.41;;;16.12;59.11
77871;BME280;67067;46.850;7.578;2023-07-13T03:30:01;95437.47;;;16.08;59.11
77871;BME280;67067;46.850;7.578;2023-07-13T03:31:05;95439.94;;;16.04;58.84
77871;BME280;67067;46.850;7.578;2023-07-13T03:32:07;95441.78;;;16.04;58.99
77871;BME280;67067;46.850;7.578;2023-07-13T03:33:09;95442.06;;;16.02;58.93
77871;BME280;67067;46.850;7.578;2023-07-13T03:34:11;95438.34;;;16.03;59.21
77871;BME280;67067;46.850;7.578;2023-07-13T03:35:14;95439.38;;;16.02;58.89
77871;BME280;67067;46.850;7.578;2023-07-13T03:36:24;95433.00;;;16.03;58.87
77871;BME280;67067;46.850;7.578;2023-07-13T03:37:29;95431.94;;;15.99;58.86
77871;BME280;67067;46.850;7.578;2023-07-13T03:38:31;95434.34;;;16.01;58.72
77871;BME280;67067;46.850;7.578;2023-07-13T03:39:33;95429.53;;;16.03;58.45
77871;BME280;67067;46.850;7.578;2023-07-13T03:40:37;95423.66;;;16.01;58.74
77871;BME280;67067;46.850;7.578;2023-07-13T03:41:39;95427.16;;;15.96;58.98
77871;BME280;67067;46.850;7.578;2023-07-13T03:42:41;95422.91;;;15.95;58.90
77871;BME280;67067;46.850;7.578;2023-07-13T03:43:48;95426.13;;;15.92;59.25
77871;BME280;67067;46.850;7.578;2023-07-13T03:44:52;95426.13;;;15.92;59.08
77871;BME280;67067;46.850;7.578;2023-07-13T03:45:54;95429.06;;;15.96;59.29
77871;BME280;67067;46.850;7.578;2023-07-13T03:46:56;95430.38;;;15.93;59.34
77871;BME280;67067;46.850;7.578;2023-07-13T03:47:58;95429.28;;;15.94;59.54
77871;BME280;67067;46.850;7.578;2023-07-13T03:49:01;95425.03;;;15.93;59.00
77871;BME280;67067;46.850;7.578;2023-07-13T03:50:07;95429.28;;;15.94;59.04
77871;BME280;67067;46.850;7.578;2023-07-13T03:51:09;95422.38;;;15.93;59.27
77871;BME280;67067;46.850;7.578;2023-07-13T03:52:11;95425.84;;;15.94;59.47
77871;BME280;67067;46.850;7.578;2023-07-13T03:53:13;95425.44;;;15.81;60.09
77871;BME280;67067;46.850;7.578;2023-07-13T03:54:14;95426.13;;;15.92;59.68
77871;BME280;67067;46.850;7.578;2023-07-13T03:55:16;95424.75;;;15.95;60.16
77871;BME280;67067;46.850;7.578;2023-07-13T03:56:19;95415.94;;;15.94;60.08
77871;BME280;67067;46.850;7.578;2023-07-13T03:57:23;95422.38;;;15.93;60.19
77871;BME280;67067;46.850;7.578;2023-07-13T03:58:29;95423.75;;;15.90;60.04
77871;BME280;67067;46.850;7.578;2023-07-13T03:59:37;95427.69;;;15.93;60.25
77871;BME280;67067;46.850;7.578;2023-07-13T04:00:42;95425.59;;;15.90;59.81
77871;BME280;67067;46.850;7.578;2023-07-13T04:01:46;95432.16;;;15.73;60.26
77871;BME280;67067;46.850;7.578;2023-07-13T04:02:48;95435.75;;;15.88;59.75
77871;BME280;67067;46.850;7.578;2023-07-13T04:03:51;95440.81;;;15.89;59.74
77871;BME280;67067;46.850;7.578;2023-07-13T04:04:56;95442.69;;;15.89;59.76
77871;BME280;67067;46.850;7.578;2023-07-13T04:06:00;95436.56;;;15.88;59.76
77871;BME280;67067;46.850;7.578;2023-07-13T04:07:02;95450.69;;;15.89;60.14
77871;BME280;67067;46.850;7.578;2023-07-13T04:08:04;95454.94;;;15.90;59.84
77871;BME280;67067;46.850;7.578;2023-07-13T04:09:08;95454.94;;;15.95;59.66
77871;BME280;67067;46.850;7.578;2023-07-13T04:10:10;95462.13;;;15.95;60.23
77871;BME280;67067;46.850;7.578;2023-07-13T04:11:14;95454.94;;;15.95;60.33
77871;BME280;67067;46.850;7.578;2023-07-13T04:12:17;95464.28;;;15.98;59.98
77871;BME280;67067;46.850;7.578;2023-07-13T04:13:18;95456.06;;;15.84;60.13
77871;BME280;67067;46.850;7.578;2023-07-13T04:14:20;95464.03;;;15.89;60.05
77871;BME280;67067;46.850;7.578;2023-07-13T04:15:22;95465.75;;;15.74;60.17
77871;BME280;67067;46.850;7.578;2023-07-13T04:16:24;95458.19;;;15.87;60.23
77871;BME280;67067;46.850;7.578;2023-07-13T04:17:26;95452.09;;;15.81;60.04
77871;BME280;67067;46.850;7.578;2023-07-13T04:18:27;95465.75;;;15.74;60.15
77871;BME280;67067;46.850;7.578;2023-07-13T04:19:29;95456.31;;;15.87;59.53
77871;BME280;67067;46.850;7.578;2023-07-13T04:20:31;95457.63;;;15.90;59.62
77871;BME280;67067;46.850;7.578;2023-07-13T04:21:33;95450.69;;;15.89;59.04
77871;BME280;67067;46.850;7.578;2023-07-13T04:22:35;95457.78;;;15.69;59.54
77871;BME280;67067;46.850;7.578;2023-07-13T04:23:37;95455.69;;;15.66;59.88
77871;BME280;67067;46.850;7.578;2023-07-13T04:24:39;95453.53;;;15.68;59.55
77871;BME280;67067;46.850;7.578;2023-07-13T04:25:46;95458.63;;;15.65;59.73
77871;BME280;67067;46.850;7.578;2023-07-13T04:26:53;95455.22;;;15.59;60.52
77871;BME280;67067;46.850;7.578;2023-07-13T04:27:55;95458.94;;;15.58;60.33
77871;BME280;67067;46.850;7.578;2023-07-13T04:29:00;95472.00;;;15.59;60.63
77871;BME280;67067;46.850;7.578;2023-07-13T04:30:02;95478.16;;;15.60;60.52
77871;BME280;67067;46.850;7.578;2023-07-13T04:31:05;95482.91;;;15.63;60.72
77871;BME280;67067;46.850;7.578;2023-07-13T04:32:08;95486.38;;;15.64;60.67
77871;BME280;67067;46.850;7.578;2023-07-13T04:33:10;95487.16;;;15.69;60.65
77871;BME280;67067;46.850;7.578;2023-07-13T04:34:14;95489.56;;;15.71;60.73
77871;BME280;67067;46.850;7.578;2023-07-13T04:35:16;95490.41;;;15.61;60.69
77871;BME280;67067;46.850;7.578;2023-07-13T04:36:18;95494.06;;;15.70;60.46
77871;BME280;67067;46.850;7.578;2023-07-13T04:37:20;95493.34;;;15.59;60.92
77871;BME280;67067;46.850;7.578;2023-07-13T04:38:24;95502.59;;;15.72;60.50
77871;BME280;67067;46.850;7.578;2023-07-13T04:39:26;95489.78;;;15.74;60.52
77871;BME280;67067;46.850;7.578;2023-07-13T04:41:31;95491.88;;;15.78;60.32
77871;BME280;67067;46.850;7.578;2023-07-13T04:42:33;95492.69;;;15.78;60.17
77871;BME280;67067;46.850;7.578;2023-07-13T04:43:36;95485.72;;;15.82;60.47
77871;BME280;67067;46.850;7.578;2023-07-13T04:44:38;95490.81;;;15.79;60.33
77871;BME280;67067;46.850;7.578;2023-07-13T04:45:40;95493.03;;;15.66;60.11
77871;BME280;67067;46.850;7.578;2023-07-13T04:46:42;95496.66;;;15.81;60.09
77871;BME280;67067;46.850;7.578;2023-07-13T04:47:44;95500.94;;;15.82;59.74
77871;BME280;67067;46.850;7.578;2023-07-13T04:48:48;95500.94;;;15.82;60.23
77871;BME280;67067;46.850;7.578;2023-07-13T04:49:50;95492.88;;;15.87;59.96
77871;BME280;67067;46.850;7.578;2023-07-13T04:50:56;95504.09;;;15.84;60.31
77871;BME280;67067;46.850;7.578;2023-07-13T04:51:58;95501.97;;;15.86;60.19
77871;BME280;67067;46.850;7.578;2023-07-13T04:53:02;95503.03;;;15.85;59.61
77871;BME280;67067;46.850;7.578;2023-07-13T04:54:08;95501.69;;;15.87;59.31
77871;BME280;67067;46.850;7.578;2023-07-13T04:55:10;95502.34;;;15.74;59.92
77871;BME280;67067;46.850;7.578;2023-07-13T04:56:12;95501.72;;;15.82;59.60
77871;BME280;67067;46.850;7.578;2023-07-13T04:57:16;95496.91;;;15.84;59.71
77871;BME280;67067;46.850;7.578;2023-07-13T04:59:22;95503.63;;;15.76;60.57
77871;BME280;67067;46.850;7.578;2023-07-13T05:00:24;95501.47;;;15.79;60.04
77871;BME280;67067;46.850;7.578;2023-07-13T05:01:26;95515.91;;;15.78;60.24
77871;BME280;67067;46.850;7.578;2023-07-13T05:02:28;95511.06;;;15.80;60.22
77871;BME280;67067;46.850;7.578;2023-07-13T05:03:35;95516.94;;;15.82;60.17
77871;BME280;67067;46.850;7.578;2023-07-13T05:04:37;95513.19;;;15.83;59.97
77871;BME280;67067;46.850;7.578;2023-07-13T05:05:38;95508.75;;;15.73;60.36
77871;BME280;67067;46.850;7.578;2023-07-13T05:06:40;95514.00;;;15.83;59.94
77871;BME280;67067;46.850;7.578;2023-07-13T05:07:42;95503.28;;;15.88;59.98
77871;BME280;67067;46.850;7.578;2023-07-13T05:08:43;95513.53;;;15.76;59.75
77871;BME280;67067;46.850;7.578;2023-07-13T05:09:45;95505.97;;;15.88;59.53
77871;BME280;67067;46.850;7.578;2023-07-13T05:10:47;95501.41;;;15.89;59.57
77871;BME280;67067;46.850;7.578;2023-07-13T05:11:48;95506.31;;;15.76;59.65
77871;BME280;67067;46.850;7.578;2023-07-13T05:12:50;95499.28;;;15.86;59.39
77871;BME280;67067;46.850;7.578;2023-07-13T05:13:52;95505.97;;;15.88;59.03
77871;BME280;67067;46.850;7.578;2023-07-13T05:14:54;95507.00;;;15.93;59.20
77871;BME280;67067;46.850;7.578;2023-07-13T05:16:04;95516.31;;;15.95;59.50
77871;BME280;67067;46.850;7.578;2023-07-13T05:17:07;95520.03;;;15.94;60.07
77871;BME280;67067;46.850;7.578;2023-07-13T05:18:09;95527.31;;;15.88;59.98
77871;BME280;67067;46.850;7.578;2023-07-13T05:19:11;95521.09;;;15.98;59.89
77871;BME280;67067;46.850;7.578;2023-07-13T05:20:13;95525.09;;;16.01;60.17
77871;BME280;67067;46.850;7.578;2023-07-13T05:21:15;95527.47;;;16.02;59.55
77871;BME280;67067;46.850;7.578;2023-07-13T05:22:17;95521.41;;;15.92;60.05
77871;BME280;67067;46.850;7.578;2023-07-13T05:23:19;95520.03;;;15.99;59.98
77871;BME280;67067;46.850;7.578;2023-07-13T05:24:26;95522.94;;;16.03;59.84
77871;BME280;67067;46.850;7.578;2023-07-13T05:25:28;95526.94;;;16.06;60.18
77871;BME280;67067;46.850;7.578;2023-07-13T05:26:29;95528.91;;;15.89;60.23
77871;BME280;67067;46.850;7.578;2023-07-13T05:27:31;95526.44;;;15.98;60.12
77871;BME280;67067;46.850;7.578;2023-07-13T05:28:33;95531.47;;;16.05;59.96
77871;BME280;67067;46.850;7.578;2023-07-13T05:29:37;95530.97;;;16.03;59.81
77871;BME280;67067;46.850;7.578;2023-07-13T05:30:39;95534.66;;;16.07;59.52
77871;BME280;67067;46.850;7.578;2023-07-13T05:31:41;95546.72;;;15.94;59.89
77871;BME280;67067;46.850;7.578;2023-07-13T05:32:45;95538.41;;;16.06;59.98
77871;BME280;67067;46.850;7.578;2023-07-13T05:33:50;95543.13;;;16.14;59.81
77871;BME280;67067;46.850;7.578;2023-07-13T05:34:55;95539.69;;;16.14;59.66
77871;BME280;67067;46.850;7.578;2023-07-13T05:35:57;95542.88;;;16.16;59.83
77871;BME280;67067;46.850;7.578;2023-07-13T05:36:58;95544.56;;;16.07;59.99